createdAt,value
2023-01-13T00:01:20.685Z,9.80
2023-01-13T00:03:47.993Z,9.80
2023-01-13T00:06:18.258Z,9.80
2023-01-13T00:08:48.007Z,9.80
2023-01-13T00:11:14.770Z,9.80
2023-01-13T00:13:41.606Z,9.80
2023-01-13T00:16:18.077Z,9.80
2023-01-13T00:18:46.775Z,9.80
2023-01-13T00:21:24.485Z,9.70
2023-01-13T00:23:55.209Z,9.80
2023-01-13T00:26:27.531Z,9.80
2023-01-13T00:29:00.520Z,9.80
2023-01-13T00:31:28.637Z,9.80
2023-01-13T00:34:00.615Z,9.80
2023-01-13T00:36:27.964Z,9.80
2023-01-13T00:38:54.999Z,9.80
2023-01-13T00:41:23.793Z,9.70
2023-01-13T00:43:51.243Z,9.70
2023-01-13T00:46:21.307Z,9.70
2023-01-13T00:48:48.631Z,9.70
2023-01-13T00:51:18.382Z,9.80
2023-01-13T00:53:48.153Z,9.70
2023-01-13T00:56:38.392Z,9.70
2023-01-13T00:59:05.805Z,9.70
2023-01-13T01:01:33.076Z,9.70
2023-01-13T01:03:59.987Z,9.70
2023-01-13T01:06:27.586Z,9.70
2023-01-13T01:08:55.660Z,9.70
2023-01-13T01:11:25.584Z,9.70
2023-01-13T01:13:53.947Z,9.70
2023-01-13T01:16:23.316Z,9.70
2023-01-13T01:18:51.857Z,9.70
2023-01-13T01:21:19.776Z,9.80
2023-01-13T01:23:46.919Z,9.70
2023-01-13T01:26:20.559Z,9.70
2023-01-13T01:28:48.088Z,9.70
2023-01-13T01:31:21.226Z,9.60
2023-01-13T01:33:48.684Z,9.60
2023-01-13T01:36:18.086Z,9.50
2023-01-13T01:38:45.450Z,9.40
2023-01-13T01:41:18.148Z,9.40
2023-01-13T01:44:03.976Z,9.40
2023-01-13T01:46:40.736Z,9.40
2023-01-13T01:49:19.503Z,9.40
2023-01-13T01:51:49.429Z,9.40
2023-01-13T01:54:22.873Z,9.40
2023-01-13T01:56:50.066Z,9.50
2023-01-13T01:59:18.057Z,9.50
2023-01-13T02:01:45.426Z,9.50
2023-01-13T02:04:22.252Z,9.50
2023-01-13T02:06:50.646Z,9.50
2023-01-13T02:09:17.839Z,9.50
2023-01-13T02:12:02.946Z,9.60
2023-01-13T02:14:32.607Z,9.60
2023-01-13T02:17:20.548Z,9.60
2023-01-13T02:20:17.695Z,9.60
2023-01-13T02:23:09.207Z,9.60
2023-01-13T02:26:06.035Z,9.70
2023-01-13T02:29:12.707Z,9.70
2023-01-13T02:31:44.799Z,9.70
2023-01-13T02:34:17.738Z,9.70
2023-01-13T02:36:44.491Z,9.70
2023-01-13T02:39:38.304Z,9.70
2023-01-13T02:42:26.035Z,9.60
2023-01-13T02:45:00.861Z,9.60
2023-01-13T02:47:29.981Z,9.60
2023-01-13T02:50:02.087Z,9.60
2023-01-13T02:52:39.378Z,9.60
2023-01-13T02:55:22.101Z,9.60
2023-01-13T02:57:49.755Z,9.60
2023-01-13T03:00:18.445Z,9.60
2023-01-13T03:02:45.253Z,9.60
2023-01-13T03:05:17.218Z,9.70
2023-01-13T03:08:11.852Z,9.60
2023-01-13T03:10:47.644Z,9.60
2023-01-13T03:13:33.187Z,9.60
2023-01-13T03:16:27.982Z,9.60
2023-01-13T03:19:22.053Z,9.50
2023-01-13T03:21:56.743Z,9.50
2023-01-13T03:24:26.236Z,9.50
2023-01-13T03:27:15.024Z,9.40
2023-01-13T03:29:48.783Z,9.40
2023-01-13T03:32:27.792Z,9.40
2023-01-13T03:35:28.841Z,9.30
2023-01-13T03:38:18.584Z,9.30
2023-01-13T03:40:53.800Z,9.30
2023-01-13T03:43:46.888Z,9.30
2023-01-13T03:46:21.744Z,9.30
2023-01-13T03:48:55.025Z,9.20
2023-01-13T03:51:25.601Z,9.20
2023-01-13T03:54:13.951Z,9.10
2023-01-13T03:56:47.007Z,9.00
2023-01-13T03:59:19.890Z,8.90
2023-01-13T04:01:53.044Z,8.90
2023-01-13T04:04:26.599Z,8.80
2023-01-13T04:06:59.300Z,8.80
2023-01-13T04:09:44.239Z,8.80
2023-01-13T04:12:59.167Z,8.80
2023-01-13T04:15:28.929Z,8.70
2023-01-13T04:18:02.517Z,8.70
2023-01-13T04:20:29.371Z,8.60
2023-01-13T04:22:56.152Z,8.60
2023-01-13T04:25:22.986Z,8.60
2023-01-13T04:27:49.737Z,8.50
2023-01-13T04:30:16.820Z,8.50
2023-01-13T04:32:43.551Z,8.30
2023-01-13T04:35:10.656Z,8.30
2023-01-13T04:37:37.435Z,8.30
2023-01-13T04:40:04.823Z,8.30
2023-01-13T04:42:31.675Z,8.30
2023-01-13T04:44:58.539Z,8.20
2023-01-13T04:47:25.338Z,8.20
2023-01-13T04:49:52.136Z,8.10
2023-01-13T04:52:18.922Z,8.10
2023-01-13T04:54:45.824Z,8.10
2023-01-13T04:57:12.617Z,8.10
2023-01-13T04:59:39.422Z,8.10
2023-01-13T05:02:09.001Z,8.00
2023-01-13T05:04:36.474Z,8.00
2023-01-13T05:07:03.388Z,7.90
2023-01-13T05:09:30.255Z,7.90
2023-01-13T05:12:16.667Z,7.80
2023-01-13T05:15:02.126Z,7.80
2023-01-13T05:17:29.012Z,7.70
2023-01-13T05:19:55.738Z,7.60
2023-01-13T05:22:41.257Z,7.60
2023-01-13T05:25:25.291Z,7.60
2023-01-13T05:27:58.330Z,7.60
2023-01-13T05:30:33.615Z,7.60
2023-01-13T05:33:00.459Z,7.60
2023-01-13T05:35:29.231Z,7.60
2023-01-13T05:37:56.179Z,7.60
2023-01-13T05:40:41.572Z,7.60
2023-01-13T05:43:22.889Z,7.60
2023-01-13T05:45:59.133Z,7.50
2023-01-13T05:48:41.646Z,7.50
2023-01-13T05:51:10.872Z,7.50
2023-01-13T05:53:37.899Z,7.40
2023-01-13T05:56:05.775Z,7.40
2023-01-13T05:58:32.584Z,7.40
2023-01-13T06:01:05.460Z,7.40
2023-01-13T06:03:32.393Z,7.40
2023-01-13T06:06:01.758Z,7.30
2023-01-13T06:08:29.027Z,7.30
2023-01-13T06:10:56.243Z,7.30
2023-01-13T06:13:25.266Z,7.20
2023-01-13T06:15:55.180Z,7.20
2023-01-13T06:18:22.031Z,7.30
2023-01-13T06:20:49.605Z,7.40
2023-01-13T06:23:16.427Z,7.50
2023-01-13T06:26:17.949Z,7.50
2023-01-13T06:28:44.844Z,7.60
2023-01-13T06:31:12.039Z,7.60
2023-01-13T06:33:50.766Z,7.70
2023-01-13T06:36:22.533Z,7.70
2023-01-13T06:38:53.721Z,7.80
2023-01-13T06:41:41.141Z,7.80
2023-01-13T06:44:07.955Z,7.80
2023-01-13T06:46:35.730Z,7.90
2023-01-13T06:49:02.575Z,7.90
2023-01-13T06:51:29.349Z,7.90
2023-01-13T06:53:56.270Z,7.90
2023-01-13T06:56:23.350Z,7.90
2023-01-13T06:58:50.125Z,8.00
2023-01-13T07:01:16.925Z,8.00
2023-01-13T07:03:43.722Z,8.00
2023-01-13T07:06:10.515Z,8.00
2023-01-13T07:08:37.411Z,8.10
2023-01-13T07:11:04.612Z,8.10
2023-01-13T07:13:49.820Z,8.10
2023-01-13T07:16:16.644Z,8.20
2023-01-13T07:18:43.399Z,8.20
2023-01-13T07:21:13.219Z,8.30
2023-01-13T07:23:41.599Z,8.30
2023-01-13T07:26:10.594Z,8.30
2023-01-13T07:28:37.917Z,8.30
2023-01-13T07:31:05.751Z,8.40
2023-01-13T07:33:33.404Z,8.40
2023-01-13T07:36:02.898Z,8.30
2023-01-13T07:38:31.650Z,8.30
2023-01-13T07:40:58.467Z,8.30
2023-01-13T07:43:34.027Z,8.30
2023-01-13T07:46:06.069Z,8.30
2023-01-13T07:48:34.306Z,8.40
2023-01-13T07:51:07.047Z,8.30
2023-01-13T07:53:34.265Z,8.30
2023-01-13T07:56:01.746Z,8.30
2023-01-13T07:58:29.502Z,8.30
2023-01-13T08:00:57.895Z,8.30
2023-01-13T08:03:25.064Z,8.30
2023-01-13T08:05:51.878Z,8.40
2023-01-13T08:08:19.382Z,8.40
2023-01-13T08:10:46.252Z,8.40
2023-01-13T08:13:22.585Z,8.50
2023-01-13T08:15:51.782Z,8.50
2023-01-13T08:18:22.055Z,8.50
2023-01-13T08:20:49.668Z,8.50
2023-01-13T08:23:16.696Z,8.60
2023-01-13T08:25:43.557Z,8.50
2023-01-13T08:28:10.462Z,8.50
2023-01-13T08:30:37.333Z,8.50
2023-01-13T08:33:07.921Z,8.40
2023-01-13T08:35:37.886Z,8.40
2023-01-13T08:38:05.663Z,8.30
2023-01-13T08:40:33.037Z,8.30
2023-01-13T08:43:00.142Z,8.20
2023-01-13T08:45:27.097Z,8.20
2023-01-13T08:47:53.945Z,8.30
2023-01-13T08:50:20.869Z,8.30
2023-01-13T08:52:47.748Z,8.30
2023-01-13T08:55:14.543Z,8.40
2023-01-13T08:57:41.367Z,8.40
2023-01-13T09:00:09.658Z,8.40
2023-01-13T09:02:36.671Z,8.30
2023-01-13T09:05:04.587Z,8.30
2023-01-13T09:07:31.543Z,8.30
2023-01-13T09:09:58.469Z,8.30
2023-01-13T09:12:43.817Z,8.30
2023-01-13T09:15:11.324Z,8.30
2023-01-13T09:17:38.069Z,8.40
2023-01-13T09:20:06.143Z,8.50
2023-01-13T09:22:35.559Z,8.60
2023-01-13T09:25:02.391Z,8.70
2023-01-13T09:27:29.230Z,8.70
2023-01-13T09:29:55.987Z,8.70
2023-01-13T09:32:22.776Z,8.80
2023-01-13T09:35:01.847Z,8.80
2023-01-13T09:37:34.860Z,8.80
2023-01-13T09:40:03.465Z,8.80
2023-01-13T09:42:51.643Z,8.80
2023-01-13T09:45:37.209Z,8.80
2023-01-13T09:48:22.372Z,8.90
2023-01-13T09:51:24.531Z,8.90
2023-01-13T09:53:56.476Z,8.90
2023-01-13T09:56:24.544Z,8.90
2023-01-13T09:58:52.072Z,8.90
2023-01-13T10:01:42.528Z,8.90
2023-01-13T10:04:15.305Z,9.00
2023-01-13T10:06:51.856Z,8.90
2023-01-13T10:09:30.369Z,9.00
2023-01-13T10:12:19.375Z,9.00
2023-01-13T10:14:55.972Z,9.00
2023-01-13T10:17:32.426Z,9.00
2023-01-13T10:20:08.341Z,9.00
2023-01-13T10:22:40.926Z,9.00
2023-01-13T10:25:26.391Z,9.00
2023-01-13T10:27:56.057Z,9.00
2023-01-13T10:30:31.981Z,9.10
2023-01-13T10:33:11.263Z,9.10
2023-01-13T10:35:57.998Z,9.10
2023-01-13T10:38:36.977Z,9.10
2023-01-13T10:41:16.312Z,9.10
2023-01-13T10:43:52.389Z,9.10
2023-01-13T10:46:21.834Z,9.10
2023-01-13T10:48:55.681Z,9.10
2023-01-13T10:51:37.757Z,9.10
2023-01-13T10:54:13.360Z,9.10
2023-01-13T10:56:45.038Z,9.10
2023-01-13T10:59:24.114Z,9.10
2023-01-13T11:02:19.852Z,9.10
2023-01-13T11:04:54.274Z,9.10
2023-01-13T11:07:38.424Z,9.10
2023-01-13T11:10:20.353Z,9.10
2023-01-13T11:13:15.973Z,9.20
2023-01-13T11:16:03.866Z,9.20
2023-01-13T11:19:13.087Z,9.10
2023-01-13T11:22:20.394Z,9.10
2023-01-13T11:25:01.483Z,9.20
2023-01-13T11:27:45.794Z,9.20
2023-01-13T11:30:41.267Z,9.20
2023-01-13T11:33:12.199Z,9.20
2023-01-13T11:35:45.285Z,9.20
2023-01-13T11:38:28.653Z,9.20
2023-01-13T11:41:01.872Z,9.20
2023-01-13T11:43:52.895Z,9.20
2023-01-13T11:46:24.063Z,9.20
2023-01-13T11:48:51.445Z,9.20
2023-01-13T11:51:36.134Z,9.20
2023-01-13T11:54:29.834Z,9.10
2023-01-13T11:57:34.489Z,9.00
2023-01-13T12:00:01.191Z,9.00
2023-01-13T12:02:46.757Z,9.00
2023-01-13T12:05:25.580Z,8.90
2023-01-13T12:08:18.169Z,8.90
2023-01-13T12:10:53.603Z,8.90
2023-01-13T12:13:48.144Z,8.90
2023-01-13T12:16:20.309Z,8.90
2023-01-13T12:18:59.398Z,8.90
2023-01-13T12:21:33.670Z,8.90
2023-01-13T12:24:21.841Z,8.90
2023-01-13T12:27:20.661Z,8.80
2023-01-13T12:29:51.485Z,8.90
2023-01-13T12:32:21.893Z,8.90
2023-01-13T12:34:51.979Z,8.90
2023-01-13T12:37:45.848Z,8.80
2023-01-13T12:40:22.390Z,8.90
2023-01-13T12:43:31.695Z,8.90
2023-01-13T12:46:22.959Z,8.90
2023-01-13T12:48:56.989Z,8.90
2023-01-13T12:51:27.101Z,8.90
2023-01-13T12:53:55.347Z,8.90
2023-01-13T12:56:44.931Z,8.90
2023-01-13T12:59:19.044Z,9.00
2023-01-13T13:01:48.062Z,9.00
2023-01-13T13:04:19.445Z,9.00
2023-01-13T13:06:56.914Z,9.10
2023-01-13T13:09:35.490Z,9.20
2023-01-13T13:12:49.982Z,9.20
2023-01-13T13:15:24.812Z,9.20
2023-01-13T13:18:08.718Z,9.30
2023-01-13T13:20:54.491Z,9.30
2023-01-13T13:23:35.452Z,9.20
2023-01-13T13:26:37.808Z,9.20
2023-01-13T13:29:23.033Z,9.10
2023-01-13T13:32:34.319Z,9.10
2023-01-13T13:35:22.150Z,9.00
2023-01-13T13:38:32.191Z,9.00
2023-01-13T13:41:17.730Z,8.90
2023-01-13T13:44:04.637Z,8.80
2023-01-13T13:46:47.015Z,8.70
2023-01-13T13:49:22.595Z,8.60
2023-01-13T13:52:10.843Z,8.60
2023-01-13T13:54:41.352Z,8.60
2023-01-13T13:57:24.730Z,8.60
2023-01-13T13:59:56.281Z,8.50
2023-01-13T14:02:34.544Z,8.50
2023-01-13T14:05:22.950Z,8.60
2023-01-13T14:07:52.692Z,8.50
2023-01-13T14:10:28.502Z,8.50
2023-01-13T14:12:55.400Z,8.50
2023-01-13T14:15:28.291Z,8.50
2023-01-13T14:17:55.314Z,8.50
2023-01-13T14:20:22.167Z,8.50
2023-01-13T14:22:50.728Z,8.50
2023-01-13T14:25:34.244Z,8.50
2023-01-13T14:28:17.906Z,8.50
2023-01-13T14:30:45.304Z,8.50
2023-01-13T14:33:19.901Z,8.40
2023-01-13T14:36:05.428Z,8.40
2023-01-13T14:38:32.397Z,8.30
2023-01-13T14:41:10.379Z,8.30
2023-01-13T14:43:44.042Z,8.30
2023-01-13T14:46:11.480Z,8.20
2023-01-13T14:48:39.532Z,8.20
2023-01-13T14:51:10.887Z,8.20
2023-01-13T14:53:46.832Z,8.20
2023-01-13T14:56:43.326Z,8.20
2023-01-13T14:59:36.720Z,8.20
2023-01-13T15:02:29.451Z,8.10
2023-01-13T15:05:19.552Z,8.10
2023-01-13T15:08:04.576Z,8.10
2023-01-13T15:10:32.993Z,8.10
2023-01-13T15:13:02.889Z,8.10
2023-01-13T15:15:38.293Z,8.20
2023-01-13T15:18:14.101Z,8.10
2023-01-13T15:20:41.936Z,8.20
2023-01-13T15:23:09.210Z,8.20
2023-01-13T15:25:38.777Z,8.20
2023-01-13T15:28:07.196Z,8.20
2023-01-13T15:30:34.327Z,8.20
2023-01-13T15:33:01.111Z,8.20
2023-01-13T15:35:29.000Z,8.30
2023-01-13T15:37:57.178Z,8.30
2023-01-13T15:40:29.850Z,8.20
2023-01-13T15:43:15.257Z,8.20
2023-01-13T15:46:01.320Z,8.20
2023-01-13T15:48:32.079Z,8.20
2023-01-13T15:50:59.546Z,8.20
2023-01-13T15:53:27.893Z,8.20
2023-01-13T15:55:57.288Z,8.20
2023-01-13T15:58:30.194Z,8.20
2023-01-13T16:00:57.073Z,8.20
2023-01-13T16:03:23.987Z,8.20
2023-01-13T16:05:50.734Z,8.30
2023-01-13T16:08:20.340Z,8.30
2023-01-13T16:10:47.902Z,8.40
2023-01-13T16:13:15.413Z,8.40
2023-01-13T16:15:44.600Z,8.40
2023-01-13T16:18:26.009Z,8.40
2023-01-13T16:20:55.061Z,8.40
2023-01-13T16:23:23.089Z,8.40
2023-01-13T16:25:50.504Z,8.40
2023-01-13T16:28:24.011Z,8.40
2023-01-13T16:30:51.539Z,8.40
2023-01-13T16:33:18.477Z,8.40
2023-01-13T16:36:11.765Z,8.40
2023-01-13T16:38:32.116Z,8.40
2023-01-13T16:40:59.134Z,8.50
2023-01-13T16:43:25.880Z,8.50
2023-01-13T16:45:52.874Z,8.50
2023-01-13T16:48:20.572Z,8.50
2023-01-13T16:50:47.604Z,8.50
2023-01-13T16:53:14.410Z,8.50
2023-01-13T16:55:42.387Z,8.50
2023-01-13T16:58:20.254Z,8.40
2023-01-13T17:00:47.875Z,8.40
2023-01-13T17:03:15.509Z,8.30
2023-01-13T17:05:44.347Z,8.30
2023-01-13T17:08:17.728Z,8.30
2023-01-13T17:10:46.181Z,8.30
2023-01-13T17:13:16.836Z,8.30
2023-01-13T17:15:45.326Z,8.30
2023-01-13T17:18:13.425Z,8.30
2023-01-13T17:20:40.820Z,8.30
2023-01-13T17:23:07.649Z,8.30
2023-01-13T17:25:34.450Z,8.30
2023-01-13T17:28:01.232Z,8.30
2023-01-13T17:30:28.054Z,8.30
2023-01-13T17:32:54.945Z,8.30
2023-01-13T17:35:24.848Z,8.30
2023-01-13T17:37:53.172Z,8.30
2023-01-13T17:40:20.452Z,8.30
2023-01-13T17:42:47.272Z,8.30
2023-01-13T17:45:14.080Z,8.30
2023-01-13T17:47:40.899Z,8.30
2023-01-13T17:50:08.195Z,8.20
2023-01-13T17:52:35.185Z,8.20
2023-01-13T17:55:02.088Z,8.20
2023-01-13T17:57:28.943Z,8.20
2023-01-13T18:00:02.011Z,8.20
2023-01-13T18:02:30.177Z,8.20
2023-01-13T18:04:57.219Z,8.20
2023-01-13T18:07:24.051Z,8.20
2023-01-13T18:09:50.840Z,8.10
2023-01-13T18:12:17.620Z,8.10
2023-01-13T18:14:44.378Z,8.20
2023-01-13T18:17:11.658Z,8.20
2023-01-13T18:19:56.839Z,8.20
2023-01-13T18:22:42.357Z,8.20
2023-01-13T18:25:31.038Z,8.20
2023-01-13T18:28:01.183Z,8.20
2023-01-13T18:30:28.092Z,8.20
2023-01-13T18:32:55.583Z,8.20
2023-01-13T18:35:22.460Z,8.20
2023-01-13T18:37:49.212Z,8.30
2023-01-13T18:40:16.519Z,8.20
2023-01-13T18:42:53.982Z,8.20
2023-01-13T18:45:26.925Z,8.20
2023-01-13T18:47:55.557Z,8.20
2023-01-13T18:50:23.262Z,8.20
2023-01-13T18:52:50.797Z,8.20
2023-01-13T18:55:18.100Z,8.20
2023-01-13T18:57:45.206Z,8.20
2023-01-13T19:00:16.157Z,8.30
2023-01-13T19:02:44.000Z,8.30
2023-01-13T19:05:10.960Z,8.30
2023-01-13T19:07:37.824Z,8.30
2023-01-13T19:10:06.654Z,8.30
2023-01-13T19:12:33.784Z,8.20
2023-01-13T19:15:02.076Z,8.20
2023-01-13T19:17:33.611Z,8.10
2023-01-13T19:20:00.764Z,8.00
2023-01-13T19:22:30.957Z,7.90
2023-01-13T19:24:58.538Z,7.70
2023-01-13T19:27:27.570Z,7.60
2023-01-13T19:29:57.488Z,7.60
2023-01-13T19:32:25.802Z,7.50
2023-01-13T19:34:54.958Z,7.50
2023-01-13T19:37:21.971Z,7.50
2023-01-13T19:39:48.782Z,7.50
2023-01-13T19:42:34.343Z,7.60
2023-01-13T19:45:19.615Z,7.60
2023-01-13T19:47:47.090Z,7.60
2023-01-13T19:50:14.407Z,7.60
2023-01-13T19:52:42.655Z,7.50
2023-01-13T19:55:12.307Z,7.60
2023-01-13T19:57:40.038Z,7.60
2023-01-13T20:00:08.364Z,7.60
2023-01-13T20:02:36.887Z,7.60
2023-01-13T20:05:06.640Z,7.60
2023-01-13T20:07:35.334Z,7.60
2023-01-13T20:10:02.484Z,7.70
2023-01-13T20:12:29.880Z,7.60
2023-01-13T20:14:57.046Z,7.60
2023-01-13T20:17:25.821Z,7.60
2023-01-13T20:19:53.007Z,7.50
2023-01-13T20:22:20.251Z,7.40
2023-01-13T20:24:48.486Z,7.30
2023-01-13T20:27:15.326Z,7.30
2023-01-13T20:29:42.402Z,7.20
2023-01-13T20:32:09.316Z,7.20
2023-01-13T20:34:36.215Z,7.30
2023-01-13T20:37:03.062Z,7.30
2023-01-13T20:39:29.878Z,7.30
2023-01-13T20:42:15.226Z,7.30
2023-01-13T20:44:44.071Z,7.30
2023-01-13T20:47:11.195Z,7.30
2023-01-13T20:49:41.474Z,7.30
2023-01-13T20:52:10.929Z,7.30
2023-01-13T20:54:39.279Z,7.30
2023-01-13T20:57:09.630Z,7.30
2023-01-13T20:59:37.920Z,7.30
2023-01-13T21:02:07.118Z,7.30
2023-01-13T21:04:34.217Z,7.30
2023-01-13T21:07:01.210Z,7.30
2023-01-13T21:09:28.121Z,7.30
2023-01-13T21:12:14.154Z,7.30
2023-01-13T21:14:59.956Z,7.30
2023-01-13T21:17:45.717Z,7.30
2023-01-13T21:20:14.653Z,7.30
2023-01-13T21:22:46.212Z,7.30
2023-01-13T21:25:13.578Z,7.30
2023-01-13T21:27:40.393Z,7.20
2023-01-13T21:30:08.093Z,7.20
2023-01-13T21:32:34.908Z,7.20
2023-01-13T21:35:02.174Z,7.30
2023-01-13T21:37:29.023Z,7.20
2023-01-13T21:39:55.883Z,7.30
2023-01-13T21:42:41.178Z,7.30
2023-01-13T21:45:29.401Z,7.40
2023-01-13T21:47:56.743Z,7.40
2023-01-13T21:50:25.804Z,7.50
2023-01-13T21:52:52.956Z,7.50
2023-01-13T21:55:25.555Z,7.50
2023-01-13T21:57:53.871Z,7.50
2023-01-13T22:00:22.539Z,7.50
2023-01-13T22:02:49.885Z,7.50
2023-01-13T22:05:20.597Z,7.50
2023-01-13T22:07:47.887Z,7.50
2023-01-13T22:10:17.766Z,7.40
2023-01-13T22:12:44.764Z,7.40
2023-01-13T22:15:14.036Z,7.30
2023-01-13T22:17:42.407Z,7.30
2023-01-13T22:20:13.384Z,7.20
2023-01-13T22:22:40.295Z,7.20
2023-01-13T22:25:10.674Z,7.10
2023-01-13T22:27:44.805Z,7.20
2023-01-13T22:30:15.746Z,7.10
2023-01-13T22:32:42.698Z,7.10
2023-01-13T22:35:11.467Z,7.10
2023-01-13T22:37:38.740Z,7.10
2023-01-13T22:40:08.280Z,7.10
2023-01-13T22:42:40.003Z,7.10
2023-01-13T22:45:09.859Z,7.20
2023-01-13T22:47:36.696Z,7.10
2023-01-13T22:50:04.463Z,7.10
2023-01-13T22:52:32.693Z,7.10
2023-01-13T22:55:00.839Z,7.20
2023-01-13T22:57:46.721Z,7.20
2023-01-13T23:00:15.125Z,7.20
2023-01-13T23:02:42.082Z,7.20
2023-01-13T23:05:09.110Z,7.20
2023-01-13T23:07:36.258Z,7.20
2023-01-13T23:10:03.881Z,7.20
2023-01-13T23:12:30.763Z,7.20
2023-01-13T23:14:57.545Z,7.30
2023-01-13T23:17:24.387Z,7.30
2023-01-13T23:19:51.184Z,7.30
2023-01-13T23:22:18.057Z,7.30
2023-01-13T23:24:45.548Z,7.30
2023-01-13T23:27:12.338Z,7.30
2023-01-13T23:29:39.181Z,7.30
2023-01-13T23:32:06.263Z,7.30
2023-01-13T23:34:33.062Z,7.30
2023-01-13T23:36:59.923Z,7.30
2023-01-13T23:39:26.964Z,7.20
2023-01-13T23:41:54.492Z,7.20
2023-01-13T23:44:21.306Z,7.20
2023-01-13T23:46:48.114Z,7.20
2023-01-13T23:49:14.984Z,7.20
2023-01-13T23:51:41.833Z,7.20
2023-01-13T23:54:08.650Z,7.20
2023-01-13T23:56:39.319Z,7.20
2023-01-13T23:59:06.707Z,7.30
